KJKL

Julian Carroll Airport

Jackson, Kentucky, USA
METAR KJKL 151604Z AUTO 00000KT 1 1/2SM BR BKN002 BKN015 OVC050 10/09 A2990 RMK AO2 VIS 3/4V5 RAE02 P0000 T01000094
Observed Flight Rules
Dec-15 @ 16:04 UTC (9 minutes ago) Instrument Flight Rules
Visibility Clouds Conditions
1 1/2 miles
  • Broken at 200' AGL
  • Broken at 1,500' AGL
  • Overcast at 5,000' AGL
  • Mist
Temperatures Readings Precipitation
Current 10°C / 50°F
Dewpoint 9°C / 48°F
Humidity 94%
Altimeter 29.9" Hg
Pressure 1013 hPa
Elevation 416
Current Rain 0.005
METAR KJKL 151604Z AUTO 00000KT 1 1/2SM BR BKN002 BKN015 OVC050 10/09 A2990 RMK AO2 VIS 3/4V5 RAE02 P0000 T01000094
Observed Flight Rules
Dec-15 @ 16:04 UTC
(9 minutes ago)
LIFR
Clouds
  • Broken at 200' AGL
  • Broken at 1,500' AGL
  • Overcast at 5,000' AGL
Conditions
  • Mist
Temperature Dewpoint
10°C / 50°F 9°C / 48°F
Humidity Altimeter Pressure
94% 29.9" Hg 1013 hPa
Current Rain
0.005